createdAt,value
2019-02-25T00:00:57.416Z,44.14
2019-02-25T00:01:57.385Z,46.02
2019-02-25T00:02:57.383Z,45.09
2019-02-25T00:03:57.385Z,46.86
2019-02-25T00:04:57.356Z,47.28
2019-02-25T00:05:57.357Z,47.80
2019-02-25T00:06:57.386Z,46.89
2019-02-25T00:07:57.330Z,47.51
2019-02-25T00:08:57.342Z,46.37
2019-02-25T00:09:57.302Z,45.86
2019-02-25T00:10:57.313Z,45.47
2019-02-25T00:11:57.302Z,45.56
2019-02-25T00:12:57.295Z,47.32
2019-02-25T00:13:57.353Z,49.49
2019-02-25T00:14:57.272Z,49.08
2019-02-25T00:15:57.263Z,48.90
2019-02-25T00:16:57.238Z,49.82
2019-02-25T00:17:57.220Z,49.22
2019-02-25T00:18:57.219Z,47.36
2019-02-25T00:19:57.229Z,46.11
2019-02-25T00:20:57.243Z,46.11
2019-02-25T00:21:57.173Z,45.17
2019-02-25T00:22:57.166Z,45.17
2019-02-25T00:23:57.162Z,45.47
2019-02-25T00:24:57.163Z,45.67
2019-02-25T00:25:57.151Z,45.47
2019-02-25T00:26:57.124Z,45.13
2019-02-25T00:27:57.108Z,45.13
2019-02-25T00:28:57.095Z,44.82
2019-02-25T00:29:57.170Z,44.72
2019-02-25T00:30:57.084Z,44.70
2019-02-25T00:31:57.067Z,45.11
2019-02-25T00:32:57.058Z,44.70
2019-02-25T00:33:57.039Z,45.01
2019-02-25T00:34:57.064Z,44.90
2019-02-25T00:35:57.021Z,44.90
2019-02-25T00:36:57.074Z,45.42
2019-02-25T00:37:57.013Z,45.32
2019-02-25T00:38:57.013Z,46.04
2019-02-25T00:39:56.989Z,45.32
2019-02-25T00:40:56.982Z,46.56
2019-02-25T00:41:56.959Z,46.25
2019-02-25T00:42:56.991Z,45.83
2019-02-25T00:43:56.951Z,45.53
2019-02-25T00:44:56.961Z,45.01
2019-02-25T00:45:56.918Z,45.01
2019-02-25T00:46:56.907Z,45.21
2019-02-25T00:47:56.918Z,46.25
2019-02-25T00:48:56.896Z,46.23
2019-02-25T00:49:56.889Z,46.43
2019-02-25T00:50:56.885Z,46.14
2019-02-25T00:51:56.856Z,46.66
2019-02-25T00:52:56.851Z,45.73
2019-02-25T00:53:56.832Z,46.77
2019-02-25T00:54:56.835Z,45.92
2019-02-25T00:55:56.815Z,45.63
2019-02-25T00:56:56.830Z,46.12
2019-02-25T00:57:56.797Z,45.83
2019-02-25T00:58:56.776Z,45.53
2019-02-25T00:59:56.775Z,45.53
2019-02-25T01:00:56.767Z,45.73
2019-02-25T01:01:56.752Z,46.23
2019-02-25T01:02:56.783Z,47.17
2019-02-25T01:03:56.733Z,46.66
2019-02-25T01:04:56.737Z,46.56
2019-02-25T01:05:56.701Z,46.97
2019-02-25T01:06:56.702Z,47.90
2019-02-25T01:07:56.762Z,48.44
2019-02-25T01:08:56.683Z,47.20
2019-02-25T01:09:56.684Z,47.81
2019-02-25T01:10:56.655Z,47.09
2019-02-25T01:11:56.643Z,47.20
2019-02-25T01:12:56.725Z,47.09
2019-02-25T01:13:56.624Z,47.20
2019-02-25T01:14:56.627Z,46.58
2019-02-25T01:15:56.598Z,46.99
2019-02-25T01:16:56.593Z,48.23
2019-02-25T01:17:56.621Z,47.30
2019-02-25T01:18:56.589Z,46.78
2019-02-25T01:19:56.593Z,47.61
2019-02-25T01:20:56.559Z,47.53
2019-02-25T01:21:56.541Z,47.30
2019-02-25T01:22:56.519Z,48.46
2019-02-25T01:23:56.517Z,48.66
2019-02-25T01:24:56.594Z,48.36
2019-02-25T01:25:56.512Z,48.97
2019-02-25T01:26:56.487Z,49.49
2019-02-25T01:27:56.468Z,49.72
2019-02-25T01:28:56.475Z,50.45
2019-02-25T01:29:56.454Z,52.93
2019-02-25T01:30:56.433Z,53.13
2019-02-25T01:31:56.526Z,53.16
2019-02-25T01:32:56.482Z,53.08
2019-02-25T01:33:56.403Z,52.87
2019-02-25T01:34:56.396Z,56.39
2019-02-25T01:35:56.437Z,55.90
2019-02-25T01:36:56.370Z,56.62
2019-02-25T01:37:56.371Z,55.49
2019-02-25T01:38:56.407Z,56.10
2019-02-25T01:39:56.349Z,57.14
2019-02-25T01:40:56.324Z,57.58
2019-02-25T01:41:56.316Z,57.06
2019-02-25T01:42:56.305Z,56.65
2019-02-25T01:43:56.309Z,56.85
2019-02-25T01:44:56.348Z,55.62
2019-02-25T01:45:56.264Z,55.12
2019-02-25T01:46:56.262Z,56.05
2019-02-25T01:47:56.250Z,56.26
2019-02-25T01:48:56.247Z,56.47
2019-02-25T01:49:56.251Z,55.95
2019-02-25T01:50:56.217Z,55.85
2019-02-25T01:51:56.229Z,55.33
2019-02-25T01:52:56.203Z,56.49
2019-02-25T01:53:56.215Z,57.64
2019-02-25T01:54:56.245Z,58.80
2019-02-25T01:55:56.167Z,59.84
2019-02-25T01:56:56.159Z,59.74
2019-02-25T01:57:56.131Z,60.57
2019-02-25T01:58:56.173Z,61.11
2019-02-25T01:59:56.116Z,61.71
2019-02-25T02:00:56.099Z,60.15
2019-02-25T02:01:56.163Z,61.11
2019-02-25T02:02:56.104Z,61.19
2019-02-25T02:03:56.076Z,61.19
2019-02-25T02:04:56.071Z,62.05
2019-02-25T02:05:56.071Z,62.05
2019-02-25T02:06:56.055Z,61.53
2019-02-25T02:07:56.043Z,61.32
2019-02-25T02:08:56.057Z,62.38
2019-02-25T02:09:56.018Z,62.05
2019-02-25T02:10:56.011Z,62.26
2019-02-25T02:11:55.994Z,62.67
2019-02-25T02:12:55.997Z,61.11
2019-02-25T02:13:55.990Z,62.80
2019-02-25T02:14:55.993Z,62.15
2019-02-25T02:15:55.983Z,62.46
2019-02-25T02:16:55.944Z,62.57
2019-02-25T02:17:55.942Z,62.38
2019-02-25T02:18:55.971Z,62.90
2019-02-25T02:19:55.911Z,62.59
2019-02-25T02:20:55.917Z,61.24
2019-02-25T02:21:55.881Z,62.49
2019-02-25T02:22:55.913Z,62.38
2019-02-25T02:23:55.874Z,63.32
2019-02-25T02:24:55.867Z,63.42
2019-02-25T02:25:55.853Z,61.97
2019-02-25T02:26:55.831Z,62.38
2019-02-25T02:27:55.828Z,61.97
2019-02-25T02:28:55.816Z,61.45
2019-02-25T02:29:55.860Z,64.04
2019-02-25T02:30:55.800Z,65.01
2019-02-25T02:31:55.786Z,65.32
2019-02-25T02:32:55.777Z,66.25
2019-02-25T02:33:55.757Z,64.59
2019-02-25T02:34:55.746Z,64.80
2019-02-25T02:35:55.743Z,65.94
2019-02-25T02:36:55.777Z,64.49
2019-02-25T02:37:55.719Z,64.90
2019-02-25T02:38:55.708Z,66.91
2019-02-25T02:39:55.702Z,66.60
2019-02-25T02:40:55.701Z,65.35
2019-02-25T02:41:55.669Z,65.63
2019-02-25T02:42:55.663Z,64.21
2019-02-25T02:43:55.725Z,65.14
2019-02-25T02:44:55.629Z,64.62
2019-02-25T02:45:55.644Z,65.01
2019-02-25T02:46:55.617Z,64.70
2019-02-25T02:47:55.601Z,64.70
2019-02-25T02:48:55.597Z,64.73
2019-02-25T02:49:55.693Z,64.70
2019-02-25T02:50:55.570Z,64.80
2019-02-25T02:51:55.568Z,64.42
2019-02-25T02:52:55.552Z,65.25
2019-02-25T02:53:55.572Z,64.94
2019-02-25T02:54:55.540Z,64.52
2019-02-25T02:55:55.551Z,65.45
2019-02-25T02:56:55.501Z,65.87
2019-02-25T02:57:55.521Z,64.73
2019-02-25T02:58:55.511Z,66.08
2019-02-25T02:59:55.470Z,65.66
2019-02-25T03:00:55.481Z,65.77
2019-02-25T03:01:55.459Z,66.18
2019-02-25T03:02:55.443Z,67.33
2019-02-25T03:03:55.521Z,66.71
2019-02-25T03:04:55.434Z,65.59
2019-02-25T03:05:55.416Z,66.91
2019-02-25T03:06:55.402Z,67.25
2019-02-25T03:07:55.405Z,67.05
2019-02-25T03:08:55.372Z,67.05
2019-02-25T03:09:55.378Z,66.31
2019-02-25T03:10:55.372Z,65.28
2019-02-25T03:11:55.349Z,67.77
2019-02-25T03:12:55.362Z,68.40
2019-02-25T03:13:55.316Z,68.74
2019-02-25T03:14:55.306Z,66.94
2019-02-25T03:15:55.328Z,68.32
2019-02-25T03:16:55.282Z,66.87
2019-02-25T03:17:55.315Z,66.97
2019-02-25T03:18:55.418Z,66.77
2019-02-25T03:19:55.274Z,66.84
2019-02-25T03:20:55.274Z,67.67
2019-02-25T03:21:55.234Z,68.19
2019-02-25T03:22:55.246Z,68.19
2019-02-25T03:23:55.226Z,66.77
2019-02-25T03:24:55.211Z,66.97
2019-02-25T03:25:55.210Z,66.56
2019-02-25T03:26:55.180Z,66.66
2019-02-25T03:27:55.272Z,66.87
2019-02-25T03:28:55.167Z,67.08
2019-02-25T03:29:55.168Z,65.52
2019-02-25T03:30:55.151Z,64.27
2019-02-25T03:31:55.140Z,65.41
2019-02-25T03:32:55.129Z,65.20
2019-02-25T03:33:55.127Z,64.79
2019-02-25T03:34:55.196Z,64.48
2019-02-25T03:35:55.093Z,64.37
2019-02-25T03:36:55.075Z,62.47
2019-02-25T03:37:55.078Z,59.77
2019-02-25T03:38:55.073Z,58.60
2019-02-25T03:39:55.043Z,57.71
2019-02-25T03:40:55.069Z,56.13
2019-02-25T03:41:55.031Z,54.96
2019-02-25T03:42:55.013Z,54.65
2019-02-25T03:43:55.007Z,54.00
2019-02-25T03:44:55.025Z,54.32
2019-02-25T03:45:54.981Z,52.84
2019-02-25T03:46:55.001Z,52.74
2019-02-25T03:47:54.962Z,53.05
2019-02-25T03:48:54.949Z,52.33
2019-02-25T03:49:54.947Z,52.33
2019-02-25T03:50:54.944Z,53.54
2019-02-25T03:51:54.924Z,52.43
2019-02-25T03:52:54.961Z,52.51
2019-02-25T03:53:54.888Z,51.29
2019-02-25T03:54:54.896Z,51.70
2019-02-25T03:55:54.882Z,52.84
2019-02-25T03:56:54.862Z,52.95
2019-02-25T03:57:54.849Z,53.46
2019-02-25T03:58:54.854Z,53.15
2019-02-25T03:59:54.868Z,51.70
2019-02-25T04:00:54.826Z,52.84
2019-02-25T04:01:54.822Z,54.21
2019-02-25T04:02:54.853Z,55.56
2019-02-25T04:03:54.808Z,56.70
2019-02-25T04:04:54.781Z,57.64
2019-02-25T04:05:54.805Z,59.01
2019-02-25T04:06:54.762Z,58.00
2019-02-25T04:07:54.740Z,58.62
2019-02-25T04:08:54.727Z,58.34
2019-02-25T04:09:54.761Z,58.75
2019-02-25T04:10:54.715Z,56.05
2019-02-25T04:11:54.714Z,56.05
2019-02-25T04:12:54.784Z,56.37
2019-02-25T04:13:54.697Z,56.24
2019-02-25T04:14:54.696Z,54.99
2019-02-25T04:15:54.654Z,55.02
2019-02-25T04:16:54.656Z,54.58
2019-02-25T04:17:54.690Z,55.30
2019-02-25T04:18:54.625Z,53.64
2019-02-25T04:19:54.610Z,55.41
2019-02-25T04:20:54.608Z,54.79
2019-02-25T04:21:54.601Z,56.03
2019-02-25T04:22:54.580Z,55.41
2019-02-25T04:23:54.569Z,55.64
2019-02-25T04:24:54.573Z,56.45
2019-02-25T04:25:54.559Z,58.00
2019-02-25T04:26:55.698Z,60.21
2019-02-25T04:27:54.528Z,61.17
2019-02-25T04:28:54.570Z,60.75
2019-02-25T04:29:54.505Z,61.48
2019-02-25T04:30:54.508Z,62.24
2019-02-25T04:31:54.495Z,63.17
2019-02-25T04:32:54.493Z,62.13
2019-02-25T04:33:54.474Z,64.03
2019-02-25T04:34:54.465Z,63.82
2019-02-25T04:35:54.449Z,63.20
2019-02-25T04:36:54.489Z,62.99
2019-02-25T04:37:54.453Z,62.47
2019-02-25T04:38:54.527Z,63.31
2019-02-25T04:39:54.411Z,64.34
2019-02-25T04:40:54.391Z,63.31
2019-02-25T04:41:54.380Z,63.85
2019-02-25T04:42:54.381Z,64.48
2019-02-25T04:43:54.355Z,63.85
2019-02-25T04:44:54.345Z,64.37
2019-02-25T04:45:54.444Z,65.52
2019-02-25T04:46:54.331Z,64.79
2019-02-25T04:47:54.316Z,64.06
2019-02-25T04:48:54.324Z,63.54
2019-02-25T04:49:54.292Z,63.96
2019-02-25T04:50:54.280Z,63.43
2019-02-25T04:51:54.283Z,63.72
2019-02-25T04:52:54.356Z,63.12
2019-02-25T04:53:54.290Z,63.02
2019-02-25T04:54:54.246Z,63.09
2019-02-25T04:55:54.235Z,63.51
2019-02-25T04:56:54.241Z,63.20
2019-02-25T04:57:54.210Z,63.62
2019-02-25T04:58:54.190Z,63.31
2019-02-25T04:59:54.203Z,62.78
2019-02-25T05:00:54.235Z,62.57
2019-02-25T05:01:54.182Z,61.74
2019-02-25T05:02:54.158Z,61.22
2019-02-25T05:03:54.157Z,60.99
2019-02-25T05:04:54.125Z,60.36
2019-02-25T05:05:54.139Z,59.12
2019-02-25T05:06:54.114Z,59.64
2019-02-25T05:07:54.112Z,59.12
2019-02-25T05:08:54.158Z,58.67
2019-02-25T05:09:54.092Z,58.57
2019-02-25T05:10:54.095Z,58.36
2019-02-25T05:11:54.063Z,58.15
2019-02-25T05:12:54.061Z,57.64
2019-02-25T05:13:54.046Z,57.84
2019-02-25T05:14:54.038Z,57.92
2019-02-25T05:15:54.012Z,57.92
2019-02-25T05:16:54.016Z,57.95
2019-02-25T05:17:54.010Z,57.71
2019-02-25T05:18:54.065Z,57.82
2019-02-25T05:19:53.989Z,58.78
2019-02-25T05:20:54.038Z,57.95
2019-02-25T05:21:53.951Z,58.05
2019-02-25T05:22:53.941Z,57.84
2019-02-25T05:23:53.940Z,58.36
2019-02-25T05:24:53.962Z,57.74
2019-02-25T05:25:53.917Z,57.51
2019-02-25T05:26:53.898Z,57.12
2019-02-25T05:27:53.887Z,56.16
2019-02-25T05:28:53.899Z,57.71
2019-02-25T05:29:53.861Z,58.13
2019-02-25T05:30:53.952Z,57.92
2019-02-25T05:31:53.852Z,57.30
2019-02-25T05:32:53.840Z,55.46
2019-02-25T05:33:53.835Z,55.12
2019-02-25T05:34:53.823Z,55.22
2019-02-25T05:35:53.801Z,55.85
2019-02-25T05:36:53.791Z,55.74
2019-02-25T05:37:53.845Z,56.47
2019-02-25T05:38:53.796Z,56.05
2019-02-25T05:39:53.768Z,55.02
2019-02-25T05:40:53.754Z,54.71
2019-02-25T05:41:53.749Z,54.60
2019-02-25T05:42:53.724Z,55.54
2019-02-25T05:43:53.751Z,55.22
2019-02-25T05:44:53.700Z,55.33
2019-02-25T05:45:53.699Z,55.22
2019-02-25T05:46:53.686Z,54.81
2019-02-25T05:47:53.694Z,55.02
2019-02-25T05:48:53.664Z,53.88
2019-02-25T05:49:53.694Z,54.68
2019-02-25T05:50:53.639Z,54.27
2019-02-25T05:51:53.630Z,54.27
2019-02-25T05:52:53.632Z,54.27
2019-02-25T05:53:53.610Z,54.16
2019-02-25T05:54:53.594Z,54.06
2019-02-25T05:55:53.615Z,54.27
2019-02-25T05:56:53.595Z,54.03
2019-02-25T05:57:53.573Z,54.75
2019-02-25T05:58:53.573Z,55.20
2019-02-25T05:59:53.547Z,55.30
2019-02-25T06:00:53.539Z,54.99
2019-02-25T06:01:53.525Z,55.62
2019-02-25T06:02:53.528Z,55.30
2019-02-25T06:03:53.498Z,54.99
2019-02-25T06:04:53.563Z,55.51
2019-02-25T06:05:53.507Z,54.81
2019-02-25T06:06:53.481Z,55.20
2019-02-25T06:07:53.463Z,54.99
2019-02-25T06:08:53.448Z,54.79
2019-02-25T06:09:53.492Z,54.68
2019-02-25T06:10:53.428Z,54.58
2019-02-25T06:11:53.434Z,54.37
2019-02-25T06:12:53.410Z,55.07
2019-02-25T06:13:53.387Z,55.30
2019-02-25T06:14:53.378Z,54.37
2019-02-25T06:15:53.394Z,54.79
2019-02-25T06:16:53.358Z,54.27
2019-02-25T06:17:53.367Z,54.13
2019-02-25T06:18:53.342Z,54.47
2019-02-25T06:19:53.332Z,54.44
2019-02-25T06:20:53.312Z,54.03
2019-02-25T06:21:53.337Z,53.51
2019-02-25T06:22:53.300Z,53.75
2019-02-25T06:23:53.392Z,53.75
2019-02-25T06:24:53.277Z,53.75
2019-02-25T06:25:53.263Z,53.61
2019-02-25T06:26:53.264Z,53.30
2019-02-25T06:27:53.244Z,53.82
2019-02-25T06:28:53.229Z,54.24
2019-02-25T06:29:53.224Z,54.03
2019-02-25T06:30:53.210Z,54.16
2019-02-25T06:31:53.202Z,54.79
2019-02-25T06:32:53.214Z,54.55
2019-02-25T06:33:53.175Z,54.79
2019-02-25T06:34:53.208Z,54.65
2019-02-25T06:35:53.163Z,54.65
2019-02-25T06:36:53.158Z,54.21
2019-02-25T06:37:53.139Z,53.67
2019-02-25T06:38:53.147Z,53.67
2019-02-25T06:39:53.117Z,53.88
2019-02-25T06:40:53.113Z,54.91
2019-02-25T06:41:53.128Z,54.19
2019-02-25T06:42:53.083Z,53.75
2019-02-25T06:43:53.077Z,51.55
2019-02-25T06:44:53.074Z,49.43
2019-02-25T06:45:53.044Z,49.60
2019-02-25T06:46:53.036Z,47.28
2019-02-25T06:47:53.057Z,47.13
2019-02-25T06:48:53.028Z,46.91
2019-02-25T06:49:53.024Z,45.34
2019-02-25T06:50:52.995Z,44.90
2019-02-25T06:51:52.987Z,44.57
2019-02-25T06:52:52.964Z,42.79
2019-02-25T06:53:52.979Z,42.35
2019-02-25T06:54:53.006Z,42.13
2019-02-25T06:55:52.949Z,41.61
2019-02-25T06:56:52.934Z,42.09
2019-02-25T06:57:52.913Z,44.04
2019-02-25T06:58:52.909Z,44.94
2019-02-25T06:59:52.944Z,45.07
2019-02-25T07:00:52.951Z,44.76
2019-02-25T07:01:52.904Z,44.96
2019-02-25T07:02:52.884Z,44.96
2019-02-25T07:03:52.863Z,45.01
2019-02-25T07:04:52.848Z,44.95
2019-02-25T07:05:52.837Z,46.84
2019-02-25T07:06:52.871Z,47.35
2019-02-25T07:07:52.810Z,46.82
2019-02-25T07:08:52.806Z,43.90
2019-02-25T07:09:52.785Z,45.19
2019-02-25T07:10:52.772Z,43.63
2019-02-25T07:11:52.765Z,44.84
2019-02-25T07:12:52.800Z,44.62
2019-02-25T07:13:52.765Z,45.43
2019-02-25T07:14:52.739Z,45.13
2019-02-25T07:15:52.722Z,45.64
2019-02-25T07:16:52.715Z,46.15
2019-02-25T07:17:52.693Z,46.79
2019-02-25T07:18:52.734Z,46.87
2019-02-25T07:19:52.943Z,46.03
2019-02-25T07:20:52.666Z,45.09
2019-02-25T07:21:52.659Z,44.55
2019-02-25T07:22:52.646Z,44.04
2019-02-25T07:23:52.639Z,43.51
2019-02-25T07:24:53.161Z,42.16
2019-02-25T07:25:52.614Z,42.55
2019-02-25T07:26:52.630Z,41.01
2019-02-25T07:27:52.638Z,41.83
2019-02-25T07:28:52.585Z,42.03
2019-02-25T07:29:52.598Z,41.61
2019-02-25T07:30:52.559Z,40.60
2019-02-25T07:31:52.540Z,41.73
2019-02-25T07:32:52.539Z,43.88
2019-02-25T07:33:52.562Z,44.92
2019-02-25T07:34:52.527Z,43.51
2019-02-25T07:35:52.515Z,45.47
2019-02-25T07:36:52.505Z,46.60
2019-02-25T07:37:52.478Z,46.91
2019-02-25T07:38:52.463Z,46.68
2019-02-25T07:39:52.529Z,46.27
2019-02-25T07:40:52.446Z,46.27
2019-02-25T07:41:52.431Z,46.37
2019-02-25T07:42:52.509Z,45.94
2019-02-25T07:43:52.424Z,45.12
2019-02-25T07:44:52.408Z,45.33
2019-02-25T07:45:52.404Z,46.48
2019-02-25T07:46:52.384Z,47.56
2019-02-25T07:47:52.409Z,49.15
2019-02-25T07:48:52.358Z,49.23
2019-02-25T07:49:52.380Z,48.59
2019-02-25T07:50:52.333Z,48.16
2019-02-25T07:51:52.338Z,47.63
2019-02-25T07:52:52.314Z,47.83
2019-02-25T07:53:52.320Z,48.44
2019-02-25T07:54:52.308Z,46.68
2019-02-25T07:55:52.321Z,45.02
2019-02-25T07:56:52.271Z,44.51
2019-02-25T07:57:52.257Z,44.08
2019-02-25T07:58:52.334Z,41.52
2019-02-25T07:59:52.256Z,41.73
2019-02-25T08:00:52.226Z,41.83
2019-02-25T08:01:52.212Z,39.99
2019-02-25T08:02:52.214Z,41.01
2019-02-25T08:03:52.189Z,40.17
2019-02-25T08:04:52.178Z,37.81
2019-02-25T08:05:52.178Z,37.50
2019-02-25T08:06:52.171Z,37.40
2019-02-25T08:07:52.162Z,37.38
2019-02-25T08:08:52.145Z,33.89
2019-02-25T08:09:52.134Z,33.59
2019-02-25T08:10:52.109Z,34.39
2019-02-25T08:11:52.129Z,33.86
2019-02-25T08:12:52.120Z,34.25
2019-02-25T08:13:52.094Z,35.88
2019-02-25T08:14:52.131Z,35.56
2019-02-25T08:15:52.056Z,33.00
2019-02-25T08:16:52.049Z,32.57
2019-02-25T08:17:52.046Z,32.56
2019-02-25T08:18:52.038Z,32.54
2019-02-25T08:19:52.225Z,31.20
2019-02-25T08:20:52.025Z,30.68
2019-02-25T08:21:52.064Z,36.99
2019-02-25T08:22:51.979Z,38.24
2019-02-25T08:23:51.980Z,38.97
2019-02-25T08:24:51.961Z,39.48
2019-02-25T08:25:52.129Z,39.56
2019-02-25T08:26:51.960Z,39.22
2019-02-25T08:27:51.977Z,37.08
2019-02-25T08:28:51.929Z,37.46
2019-02-25T08:29:51.965Z,37.30
2019-02-25T08:30:51.903Z,36.83
2019-02-25T08:31:51.915Z,37.98
2019-02-25T08:32:51.902Z,38.05
2019-02-25T08:33:51.865Z,37.54
2019-02-25T08:34:51.865Z,36.90
2019-02-25T08:35:51.852Z,36.88
2019-02-25T08:36:51.851Z,37.02
2019-02-25T08:37:51.868Z,37.04
2019-02-25T08:38:51.829Z,37.52
2019-02-25T08:39:51.848Z,36.91
2019-02-25T08:40:51.797Z,37.24
2019-02-25T08:41:51.801Z,37.26
2019-02-25T08:42:51.804Z,37.48
2019-02-25T08:43:51.779Z,37.80
2019-02-25T08:44:51.793Z,38.34
2019-02-25T08:45:51.744Z,39.26
2019-02-25T08:46:51.749Z,38.24
2019-02-25T08:47:51.750Z,38.63
2019-02-25T08:48:51.709Z,38.46
2019-02-25T08:49:51.726Z,39.46
2019-02-25T08:50:51.717Z,39.24
2019-02-25T08:51:51.683Z,38.29
2019-02-25T08:52:51.667Z,37.80
2019-02-25T08:53:51.659Z,37.61
2019-02-25T08:54:51.673Z,38.15
2019-02-25T08:55:51.643Z,39.31
2019-02-25T08:56:51.626Z,39.92
2019-02-25T08:57:51.786Z,40.53
2019-02-25T08:58:51.641Z,40.21
2019-02-25T08:59:51.591Z,39.50
2019-02-25T09:00:51.595Z,39.90
2019-02-25T09:01:51.601Z,38.60
2019-02-25T09:02:51.567Z,37.79
2019-02-25T09:03:51.566Z,38.62
2019-02-25T09:04:51.536Z,40.96
2019-02-25T09:05:51.555Z,39.25
2019-02-25T09:06:51.530Z,38.55
2019-02-25T09:07:51.499Z,40.39
2019-02-25T09:08:51.489Z,40.49
2019-02-25T09:09:51.485Z,40.84
2019-02-25T09:10:51.562Z,40.43
2019-02-25T09:11:51.478Z,38.19
2019-02-25T09:12:51.463Z,38.29
2019-02-25T09:13:51.437Z,37.27
2019-02-25T09:14:51.442Z,39.62
2019-02-25T09:15:51.422Z,37.14
2019-02-25T09:16:51.405Z,36.92
2019-02-25T09:17:51.405Z,35.92
2019-02-25T09:18:51.385Z,37.85
2019-02-25T09:19:51.375Z,37.85
2019-02-25T09:20:51.419Z,37.36
2019-02-25T09:21:51.368Z,38.19
2019-02-25T09:22:51.343Z,38.90
2019-02-25T09:23:51.331Z,39.72
2019-02-25T09:24:51.317Z,39.51
2019-02-25T09:25:51.312Z,39.62
2019-02-25T09:26:51.321Z,39.58
2019-02-25T09:27:51.293Z,38.26
2019-02-25T09:28:51.271Z,37.66
2019-02-25T09:29:51.265Z,37.95
2019-02-25T09:30:51.254Z,37.65
2019-02-25T09:31:51.243Z,39.07
2019-02-25T09:32:51.255Z,39.78
2019-02-25T09:33:51.223Z,37.97
2019-02-25T09:34:51.213Z,38.70
2019-02-25T09:35:51.207Z,40.35
2019-02-25T09:36:51.186Z,40.23
2019-02-25T09:37:51.188Z,39.43
2019-02-25T09:38:51.184Z,38.11
2019-02-25T09:39:52.009Z,39.23
2019-02-25T09:40:51.153Z,38.90
2019-02-25T09:41:51.135Z,37.21
2019-02-25T09:42:51.123Z,37.94
2019-02-25T09:43:51.128Z,38.24
2019-02-25T09:44:51.124Z,38.43
2019-02-25T09:45:51.086Z,38.62
2019-02-25T09:46:51.071Z,38.29
2019-02-25T09:47:51.069Z,38.09
2019-02-25T09:48:51.069Z,37.36
2019-02-25T09:49:51.167Z,38.06
2019-02-25T09:50:51.042Z,37.85
2019-02-25T09:51:51.022Z,36.92
2019-02-25T09:52:51.010Z,36.21
2019-02-25T09:53:51.012Z,36.08
2019-02-25T09:54:50.996Z,34.85
2019-02-25T09:55:50.980Z,34.16
2019-02-25T09:56:51.022Z,35.48
2019-02-25T09:57:50.959Z,35.16
2019-02-25T09:58:51.974Z,34.16
2019-02-25T09:59:50.943Z,33.75
2019-02-25T10:00:50.931Z,34.85
2019-02-25T10:01:50.912Z,34.24
2019-02-25T10:02:50.976Z,35.46
2019-02-25T10:03:50.885Z,33.53
2019-02-25T10:04:50.872Z,33.24
2019-02-25T10:05:50.881Z,33.85
2019-02-25T10:06:50.856Z,34.05
2019-02-25T10:07:50.845Z,33.75
2019-02-25T10:08:50.852Z,33.46
2019-02-25T10:09:50.833Z,33.04
2019-02-25T10:10:50.803Z,33.43
2019-02-25T10:11:50.792Z,33.83
2019-02-25T10:12:50.782Z,32.82
2019-02-25T10:13:51.944Z,33.12
2019-02-25T10:14:50.795Z,32.80
2019-02-25T10:15:50.754Z,32.89
2019-02-25T10:16:50.739Z,30.96
2019-02-25T10:17:50.730Z,31.18
2019-02-25T10:18:50.713Z,32.82
2019-02-25T10:19:50.710Z,33.62
2019-02-25T10:20:50.742Z,31.28
2019-02-25T10:21:50.680Z,31.08
2019-02-25T10:22:50.667Z,33.72
2019-02-25T10:23:50.656Z,31.89
2019-02-25T10:24:50.660Z,32.59
2019-02-25T10:25:50.652Z,30.94
2019-02-25T10:26:50.654Z,31.54
2019-02-25T10:27:50.626Z,30.91
2019-02-25T10:28:50.609Z,31.12
2019-02-25T10:29:50.612Z,28.77
2019-02-25T10:30:53.074Z,29.38
2019-02-25T10:31:50.573Z,29.97
2019-02-25T10:32:50.584Z,27.24
2019-02-25T10:33:50.901Z,26.93
2019-02-25T10:34:50.546Z,27.04
2019-02-25T10:35:50.527Z,28.17
2019-02-25T10:36:52.342Z,28.17
2019-02-25T10:37:50.511Z,27.66
2019-02-25T10:38:50.523Z,28.88
2019-02-25T10:39:51.491Z,29.49
2019-02-25T10:40:52.121Z,28.25
2019-02-25T10:41:51.169Z,27.55
2019-02-25T10:42:50.487Z,26.53
2019-02-25T10:43:50.444Z,26.73
2019-02-25T10:44:50.449Z,27.04
2019-02-25T10:45:50.425Z,29.06
2019-02-25T10:46:50.421Z,28.36
2019-02-25T10:47:51.665Z,29.47
2019-02-25T10:48:54.138Z,27.95
2019-02-25T10:49:50.393Z,30.87
2019-02-25T10:50:56.089Z,29.35
2019-02-25T10:51:51.403Z,28.24
2019-02-25T10:52:50.356Z,27.33
2019-02-25T10:53:51.544Z,26.71
2019-02-25T10:54:51.983Z,28.12
2019-02-25T10:55:50.948Z,27.32
2019-02-25T10:56:51.643Z,26.71
2019-02-25T10:57:50.302Z,26.82
2019-02-25T10:58:50.303Z,27.94
2019-02-25T10:59:50.277Z,27.33
2019-02-25T11:00:50.262Z,27.03
2019-02-25T11:01:50.245Z,26.84
2019-02-25T11:02:51.180Z,27.24
2019-02-25T11:03:52.041Z,27.14
2019-02-25T11:04:51.430Z,27.14
2019-02-25T11:05:51.763Z,27.05
2019-02-25T11:06:50.210Z,26.75
2019-02-25T11:07:50.177Z,26.54
2019-02-25T11:08:50.172Z,26.95
2019-02-25T11:09:50.471Z,26.84
2019-02-25T11:10:50.860Z,27.25
2019-02-25T11:11:50.690Z,28.37
2019-02-25T11:12:50.135Z,27.85
2019-02-25T11:13:50.114Z,27.33
2019-02-25T11:14:50.102Z,28.34
2019-02-25T11:15:50.102Z,29.86
2019-02-25T11:16:51.787Z,28.04
2019-02-25T11:17:51.683Z,28.24
2019-02-25T11:18:52.222Z,27.63
2019-02-25T11:19:50.054Z,29.15
2019-02-25T11:20:50.065Z,29.56
2019-02-25T11:21:50.027Z,28.43
2019-02-25T11:22:50.055Z,29.14
2019-02-25T11:23:51.688Z,29.85
2019-02-25T11:24:51.821Z,27.52
2019-02-25T11:25:51.482Z,28.12
2019-02-25T11:26:49.972Z,28.64
2019-02-25T11:27:49.974Z,31.28
2019-02-25T11:28:49.994Z,29.46
2019-02-25T11:29:49.945Z,30.87
2019-02-25T11:30:51.492Z,30.77
2019-02-25T11:31:51.505Z,29.86
2019-02-25T11:32:51.688Z,29.34
2019-02-25T11:33:49.902Z,29.74
2019-02-25T11:34:49.907Z,30.66
2019-02-25T11:35:49.881Z,30.15
2019-02-25T11:36:50.824Z,30.57
2019-02-25T11:37:51.837Z,31.26
2019-02-25T11:38:49.861Z,30.66
2019-02-25T11:39:49.830Z,32.38
2019-02-25T11:40:49.845Z,32.88
2019-02-25T11:41:49.814Z,33.18
2019-02-25T11:42:49.811Z,30.46
2019-02-25T11:43:50.942Z,31.16
2019-02-25T11:44:51.787Z,32.17
2019-02-25T11:45:49.767Z,32.50
2019-02-25T11:46:49.770Z,32.19
2019-02-25T11:47:49.751Z,32.09
2019-02-25T11:48:49.747Z,32.19
2019-02-25T11:49:50.848Z,32.59
2019-02-25T11:50:49.711Z,32.59
2019-02-25T11:51:49.698Z,32.70
2019-02-25T11:52:49.748Z,32.50
2019-02-25T11:53:49.687Z,31.68
2019-02-25T11:54:49.701Z,32.50
2019-02-25T11:55:49.664Z,32.09
2019-02-25T11:56:49.653Z,31.99
2019-02-25T11:57:49.640Z,32.79
2019-02-25T11:58:49.652Z,32.59
2019-02-25T11:59:49.619Z,31.88
2019-02-25T12:00:49.618Z,32.50
2019-02-25T12:01:49.591Z,31.28
2019-02-25T12:02:49.580Z,32.79
2019-02-25T12:03:49.570Z,32.50
2019-02-25T12:04:49.597Z,32.59
2019-02-25T12:05:49.563Z,32.79
2019-02-25T12:06:49.543Z,32.19
2019-02-25T12:07:49.532Z,32.48
2019-02-25T12:08:49.520Z,31.18
2019-02-25T12:09:49.504Z,32.71
2019-02-25T12:10:49.578Z,32.39
2019-02-25T12:11:49.526Z,32.70
2019-02-25T12:12:49.477Z,33.12
2019-02-25T12:13:49.461Z,32.10
2019-02-25T12:14:49.446Z,33.32
2019-02-25T12:15:49.435Z,33.52
2019-02-25T12:16:49.456Z,32.62
2019-02-25T12:17:49.422Z,33.32
2019-02-25T12:18:49.407Z,33.44
2019-02-25T12:19:49.396Z,33.33
2019-02-25T12:20:49.389Z,33.33
2019-02-25T12:21:49.383Z,33.54
2019-02-25T12:22:49.417Z,34.14
2019-02-25T12:23:49.349Z,34.64
2019-02-25T12:24:49.346Z,34.64
2019-02-25T12:25:49.336Z,34.43
2019-02-25T12:26:49.339Z,33.71
2019-02-25T12:27:49.317Z,34.42
2019-02-25T12:28:49.309Z,33.91
2019-02-25T12:29:49.288Z,34.72
2019-02-25T12:30:49.282Z,34.01
2019-02-25T12:31:49.262Z,35.02
2019-02-25T12:32:49.259Z,34.22
2019-02-25T12:33:49.241Z,33.50
2019-02-25T12:34:49.263Z,33.81
2019-02-25T12:35:49.212Z,34.01
2019-02-25T12:36:49.210Z,35.33
2019-02-25T12:37:49.205Z,35.02
2019-02-25T12:38:49.185Z,34.52
2019-02-25T12:39:49.173Z,35.41
2019-02-25T12:40:49.169Z,34.91
2019-02-25T12:41:49.170Z,34.80
2019-02-25T12:42:49.144Z,33.49
2019-02-25T12:43:49.148Z,33.29
2019-02-25T12:44:49.126Z,33.18
2019-02-25T12:45:49.101Z,32.98
2019-02-25T12:46:49.099Z,33.69
2019-02-25T12:47:49.074Z,33.89
2019-02-25T12:48:49.085Z,33.89
2019-02-25T12:49:49.057Z,33.29
2019-02-25T12:50:49.049Z,32.87
2019-02-25T12:51:49.057Z,33.18
2019-02-25T12:52:49.572Z,32.28